Time;durP1;ratioP1;P1;durP2;ratioP2;P2;SDS_P1;SDS_P2;PMS_P1;PMS_P2;Temp;Humidity;BMP_temperature;BMP_pressure;BME280_temperature;BME280_humidity;BME280_pressure;Samples;Min_cycle;Max_cycle;Signal;HPM_P1;HPM_P2
2021/06/09 00:01:23;;;;;;;9.05;8.13;;;;;;;;;;5114112;28;20522;-69
2021/06/09 00:03:49;;;;;;;10.32;9.32;;;;;;;;;;5096818;28;20052;-69
2021/06/09 00:06:16;;;;;;;10.32;8.25;;;;;;;;;;5102347;28;20055;-69
2021/06/09 00:08:42;;;;;;;10.07;8.27;;;;;;;;;;5113189;27;20054;-69
2021/06/09 00:11:09;;;;;;;9.90;8.88;;;;;;;;;;5105801;28;20158;-69
2021/06/09 00:13:35;;;;;;;8.95;7.88;;;;;;;;;;5113974;28;20081;-69
2021/06/09 00:16:04;;;;;;;12.77;9.40;;;;;;;;;;5113621;28;20051;-69
2021/06/09 00:18:30;;;;;;;8.43;7.63;;;;;;;;;;5113544;28;20054;-69
2021/06/09 00:20:55;;;;;;;8.70;7.72;;;;;;;;;;5113616;28;20047;-69
2021/06/09 00:23:26;;;;;;;9.90;8.55;;;;;;;;;;5113513;28;20424;-69
2021/06/09 00:25:55;;;;;;;8.48;7.65;;;;;;;;;;5113830;28;20052;-69
2021/06/09 00:28:21;;;;;;;9.27;8.38;;;;;;;;;;5116907;27;20435;-69
2021/06/09 00:30:47;;;;;;;10.18;8.48;;;;;;;;;;5133781;27;20047;-69
2021/06/09 00:33:13;;;;;;;10.57;8.85;;;;;;;;;;5134065;27;20047;-69
2021/06/09 00:35:39;;;;;;;12.15;9.38;;;;;;;;;;5133848;27;20050;-69
2021/06/09 00:38:06;;;;;;;10.30;8.20;;;;;;;;;;5133738;27;20048;-69
2021/06/09 00:40:34;;;;;;;9.07;7.50;;;;;;;;;;5133935;27;20055;-69
2021/06/09 00:43:05;;;;;;;10.63;8.18;;;;;;;;;;5134088;27;20046;-69
2021/06/09 00:45:31;;;;;;;10.02;9.00;;;;;;;;;;5134112;27;20050;-69
2021/06/09 00:47:57;;;;;;;10.68;8.88;;;;;;;;;;5133696;27;20043;-69
2021/06/09 00:50:23;;;;;;;9.32;8.18;;;;;;;;;;5133846;27;20143;-69
2021/06/09 00:52:49;;;;;;;10.75;8.82;;;;;;;;;;5119702;27;20424;-69
2021/06/09 00:55:16;;;;;;;11.93;9.70;;;;;;;;;;5113292;28;20130;-69
2021/06/09 00:57:43;;;;;;;9.70;8.55;;;;;;;;;;5113262;28;20051;-69
2021/06/09 01:00:13;;;;;;;10.30;8.60;;;;;;;;;;5113160;28;20142;-69
2021/06/09 01:02:39;;;;;;;9.75;7.53;;;;;;;;;;5112832;28;20046;-69
2021/06/09 01:05:07;;;;;;;10.48;9.48;;;;;;;;;;5111467;28;20058;-69
2021/06/09 01:07:37;;;;;;;9.98;8.98;;;;;;;;;;5111698;28;20048;-69
2021/06/09 02:11:31;;;;;;;10.30;9.30;;;;;;;;;;4829679;29;93590;-69
2021/06/09 02:13:57;;;;;;;11.27;8.85;;;;;;;;;;4859714;29;20049;-69
2021/06/09 02:16:23;;;;;;;10.70;9.50;;;;;;;;;;4882849;29;20053;-69
2021/06/09 02:18:50;;;;;;;15.43;10.43;;;;;;;;;;4876089;29;20060;-69
2021/06/09 02:21:16;;;;;;;10.60;9.50;;;;;;;;;;4875915;29;20081;-70
2021/06/09 02:23:46;;;;;;;9.68;8.68;;;;;;;;;;4875769;29;20475;-70
2021/06/09 02:26:12;;;;;;;9.98;8.68;;;;;;;;;;4875983;29;20419;-69
2021/06/09 02:28:42;;;;;;;9.50;8.60;;;;;;;;;;4866264;29;20057;-69
2021/06/09 02:31:08;;;;;;;12.00;9.18;;;;;;;;;;4856671;29;20487;-69
2021/06/09 02:33:35;;;;;;;9.30;8.30;;;;;;;;;;4857320;29;20511;-69
2021/06/09 02:36:01;;;;;;;9.57;8.65;;;;;;;;;;4856971;29;20049;-69
2021/06/09 02:38:27;;;;;;;8.90;8.00;;;;;;;;;;4857356;29;20057;-69
2021/06/09 02:40:55;;;;;;;9.45;8.23;;;;;;;;;;4856677;29;20054;-69
2021/06/09 02:43:22;;;;;;;9.93;8.90;;;;;;;;;;4857251;29;20053;-69
2021/06/09 02:45:52;;;;;;;9.90;8.90;;;;;;;;;;4857240;29;20054;-69
2021/06/09 02:48:20;;;;;;;9.60;8.57;;;;;;;;;;4856916;29;20535;-69
2021/06/09 02:50:46;;;;;;;11.68;8.80;;;;;;;;;;4856627;29;20053;-69
2021/06/09 02:53:15;;;;;;;12.13;10.80;;;;;;;;;;4856527;29;20050;-69
2021/06/09 02:55:49;;;;;;;9.07;8.00;;;;;;;;;;4856795;29;20053;-69
2021/06/09 02:58:17;;;;;;;10.60;9.38;;;;;;;;;;4856643;29;20053;-69
2021/06/09 03:00:52;;;;;;;12.48;10.07;;;;;;;;;;4856675;29;20104;-69
2021/06/09 03:03:20;;;;;;;12.65;11.30;;;;;;;;;;4856417;29;20049;-68
2021/06/09 03:05:51;;;;;;;14.32;10.38;;;;;;;;;;4856436;29;20053;-68
2021/06/09 03:08:21;;;;;;;11.55;9.18;;;;;;;;;;4847797;29;20060;-68
2021/06/09 03:10:51;;;;;;;14.65;9.35;;;;;;;;;;4831933;29;20052;-69
2021/06/09 03:13:28;;;;;;;10.75;9.65;;;;;;;;;;4849403;29;20067;-69
2021/06/09 03:16:01;;;;;;;12.38;11.15;;;;;;;;;;4974740;28;20130;-69
2021/06/09 03:18:28;;;;;;;11.55;9.88;;;;;;;;;;4975879;28;20051;-69
2021/06/09 03:20:59;;;;;;;12.55;9.48;;;;;;;;;;4976210;28;20058;-69
2021/06/09 03:23:40;;;;;;;10.45;9.35;;;;;;;;;;4976035;28;20047;-69
2021/06/09 03:26:10;;;;;;;10.73;9.32;;;;;;;;;;4975663;28;20468;-69
2021/06/09 03:28:42;;;;;;;12.35;9.38;;;;;;;;;;4975857;28;20058;-69
2021/06/09 03:31:12;;;;;;;9.88;8.73;;;;;;;;;;4976228;28;20057;-69
2021/06/09 03:33:41;;;;;;;10.50;9.32;;;;;;;;;;4975870;28;20054;-69
2021/06/09 03:36:09;;;;;;;11.48;9.45;;;;;;;;;;4975692;28;20047;-68
2021/06/09 03:38:39;;;;;;;9.90;8.90;;;;;;;;;;4976200;28;20078;-69
2021/06/09 03:41:10;;;;;;;13.05;9.40;;;;;;;;;;4975562;28;20058;-69
2021/06/09 03:43:37;;;;;;;15.20;11.65;;;;;;;;;;4975714;28;20399;-69
2021/06/09 03:46:06;;;;;;;12.20;9.60;;;;;;;;;;4975245;28;20054;-69
2021/06/09 03:48:36;;;;;;;11.23;9.07;;;;;;;;;;4975545;28;20058;-69
2021/06/09 03:51:03;;;;;;;11.23;10.05;;;;;;;;;;4975469;28;20113;-69
2021/06/09 03:53:29;;;;;;;12.13;9.25;;;;;;;;;;4975844;28;20058;-69
2021/06/09 03:56:02;;;;;;;11.48;9.30;;;;;;;;;;4976455;28;20106;-69
2021/06/09 03:58:28;;;;;;;12.55;9.07;;;;;;;;;;4987033;28;20058;-69
2021/06/09 04:00:55;;;;;;;14.52;9.43;;;;;;;;;;4995128;28;20084;-69
2021/06/09 04:03:23;;;;;;;12.50;10.15;;;;;;;;;;4994127;28;20080;-68
2021/06/09 04:05:51;;;;;;;14.65;11.48;;;;;;;;;;4986485;28;20496;-68
2021/06/09 04:08:18;;;;;;;10.23;9.00;;;;;;;;;;4975070;28;20047;-69
2021/06/09 04:10:47;;;;;;;13.02;9.23;;;;;;;;;;4971270;28;22879;-69
2021/06/09 04:13:13;;;;;;;10.18;8.95;;;;;;;;;;5007736;28;20049;-68
2021/06/09 04:15:40;;;;;;;13.43;10.98;;;;;;;;;;5017423;28;20112;-69
2021/06/09 04:18:07;;;;;;;13.13;10.13;;;;;;;;;;5013995;28;20145;-69
2021/06/09 04:20:34;;;;;;;10.85;9.73;;;;;;;;;;5013394;28;20060;-68
2021/06/09 04:23:02;;;;;;;9.60;8.40;;;;;;;;;;5013932;28;20490;-69
2021/06/09 04:25:28;;;;;;;11.98;9.60;;;;;;;;;;5013819;28;20060;-69
2021/06/09 04:27:54;;;;;;;16.55;12.77;;;;;;;;;;5013500;28;20049;-69
2021/06/09 04:30:22;;;;;;;29.17;23.98;;;;;;;;;;5013315;28;20129;-69
2021/06/09 04:32:53;;;;;;;13.77;12.20;;;;;;;;;;5013203;28;20471;-69
2021/06/09 04:35:20;;;;;;;13.73;11.55;;;;;;;;;;5013432;28;20403;-69
2021/06/09 04:37:46;;;;;;;10.75;9.65;;;;;;;;;;5013326;28;20069;-69
2021/06/09 04:40:21;;;;;;;11.73;10.20;;;;;;;;;;5013645;28;20475;-69
2021/06/09 04:42:49;;;;;;;12.63;10.88;;;;;;;;;;5013503;28;20054;-69
2021/06/09 04:45:16;;;;;;;11.68;10.02;;;;;;;;;;5013544;28;20050;-69
2021/06/09 04:47:42;;;;;;;11.15;9.75;;;;;;;;;;5013332;28;20428;-69
2021/06/09 04:50:11;;;;;;;11.82;9.40;;;;;;;;;;5012927;28;20050;-69
2021/06/09 04:52:37;;;;;;;11.35;9.95;;;;;;;;;;5013089;28;20107;-69
2021/06/09 04:55:04;;;;;;;12.50;9.10;;;;;;;;;;5012718;28;20446;-69
2021/06/09 04:57:31;;;;;;;14.32;9.32;;;;;;;;;;5012769;28;20049;-69
2021/06/09 04:59:57;;;;;;;9.98;8.98;;;;;;;;;;5012669;28;20050;-69
2021/06/09 05:02:23;;;;;;;11.90;9.27;;;;;;;;;;5011929;28;20595;-69
2021/06/09 05:04:49;;;;;;;15.05;11.00;;;;;;;;;;5010994;28;20180;-69
2021/06/09 05:07:15;;;;;;;12.80;10.35;;;;;;;;;;5012071;28;20128;-69
2021/06/09 05:09:42;;;;;;;14.52;10.30;;;;;;;;;;5019976;28;20137;-69
2021/06/09 05:12:15;;;;;;;16.08;11.50;;;;;;;;;;4983397;28;20616;-69
2021/06/09 05:14:46;;;;;;;15.98;14.25;;;;;;;;;;4995285;28;20053;-69
2021/06/09 05:17:13;;;;;;;17.90;12.80;;;;;;;;;;5029767;28;20076;-69
2021/06/09 05:19:40;;;;;;;18.63;15.68;;;;;;;;;;5033139;28;20049;-69
2021/06/09 05:22:13;;;;;;;20.48;15.85;;;;;;;;;;5032349;28;20041;-69
2021/06/09 05:24:39;;;;;;;16.80;15.02;;;;;;;;;;5021606;28;20079;-69
2021/06/09 05:27:07;;;;;;;17.73;14.90;;;;;;;;;;5013410;28;20060;-69
2021/06/09 05:29:35;;;;;;;17.60;14.68;;;;;;;;;;5015861;28;20125;-69
2021/06/09 05:32:04;;;;;;;16.23;14.52;;;;;;;;;;5032224;28;20117;-70
2021/06/09 05:34:30;;;;;;;17.25;13.88;;;;;;;;;;5032329;28;20061;-70
2021/06/09 05:36:57;;;;;;;18.20;15.52;;;;;;;;;;5032536;28;20041;-69
2021/06/09 05:39:23;;;;;;;16.38;14.63;;;;;;;;;;5032421;28;20398;-69
2021/06/09 05:41:49;;;;;;;17.05;14.75;;;;;;;;;;5025684;28;20045;-69
2021/06/09 05:44:16;;;;;;;16.17;14.48;;;;;;;;;;5032900;28;20529;-71
2021/06/09 05:46:43;;;;;;;18.00;14.50;;;;;;;;;;5032554;28;20049;-70
2021/06/09 05:49:18;;;;;;;16.98;14.10;;;;;;;;;;5032391;28;20049;-69
2021/06/09 05:51:45;;;;;;;14.02;12.52;;;;;;;;;;5031666;28;20052;-69
2021/06/09 05:54:11;;;;;;;17.33;12.77;;;;;;;;;;5020313;28;20471;-70
2021/06/09 05:56:39;;;;;;;20.50;14.38;;;;;;;;;;5013242;28;20093;-67
2021/06/09 05:59:06;;;;;;;19.55;15.07;;;;;;;;;;5013073;28;20109;-70
2021/06/09 06:01:32;;;;;;;18.55;13.68;;;;;;;;;;5025336;28;20081;-70
2021/06/09 06:03:59;;;;;;;15.98;13.68;;;;;;;;;;5031893;28;20050;-70
2021/06/09 06:06:26;;;;;;;17.90;14.38;;;;;;;;;;5026848;28;20046;-69
2021/06/09 06:08:52;;;;;;;13.88;12.35;;;;;;;;;;5027562;28;20466;-70
2021/06/09 06:11:18;;;;;;;17.08;13.15;;;;;;;;;;5021981;28;81904;-70
2021/06/09 06:13:46;;;;;;;15.52;12.85;;;;;;;;;;5034284;28;20048;-70
2021/06/09 06:16:14;;;;;;;14.35;12.80;;;;;;;;;;5040584;28;20041;-70
2021/06/09 06:18:41;;;;;;;14.15;12.70;;;;;;;;;;5032649;28;20099;-70
2021/06/09 06:21:08;;;;;;;14.77;13.27;;;;;;;;;;5035849;28;20052;-70
2021/06/09 06:23:36;;;;;;;15.38;13.02;;;;;;;;;;5052822;28;20052;-69
2021/06/09 06:26:02;;;;;;;13.13;11.82;;;;;;;;;;5053122;28;20053;-69
2021/06/09 06:28:28;;;;;;;14.55;13.15;;;;;;;;;;5052906;28;20055;-70
2021/06/09 06:30:54;;;;;;;14.07;12.68;;;;;;;;;;5039198;28;20052;-70
2021/06/09 06:33:23;;;;;;;15.40;12.98;;;;;;;;;;5052678;28;20049;-69
2021/06/09 06:35:50;;;;;;;15.13;13.52;;;;;;;;;;5052563;28;20091;-69
2021/06/09 06:38:16;;;;;;;14.85;13.30;;;;;;;;;;5052575;28;20500;-69
2021/06/09 06:40:43;;;;;;;14.13;12.73;;;;;;;;;;5042997;28;20053;-70
2021/06/09 06:43:09;;;;;;;14.95;13.27;;;;;;;;;;5054068;28;20397;-67
2021/06/09 06:45:36;;;;;;;14.82;13.13;;;;;;;;;;5055195;28;20098;-67
2021/06/09 06:48:02;;;;;;;15.70;14.07;;;;;;;;;;5053785;28;20045;-67
2021/06/09 06:50:28;;;;;;;14.82;12.38;;;;;;;;;;5039366;28;20056;-68
2021/06/09 06:52:55;;;;;;;15.32;13.73;;;;;;;;;;5048667;28;20047;-69
2021/06/09 06:55:23;;;;;;;18.10;14.15;;;;;;;;;;5052955;28;20044;-68
2021/06/09 06:57:51;;;;;;;82.15;21.88;;;;;;;;;;5044453;28;20048;-68
2021/06/09 07:00:19;;;;;;;18.95;13.77;;;;;;;;;;5044347;28;20379;-68
2021/06/09 07:02:48;;;;;;;15.73;13.98;;;;;;;;;;5045619;28;20040;-68
2021/06/09 07:05:14;;;;;;;17.05;14.15;;;;;;;;;;5040360;28;20049;-69
2021/06/09 07:07:41;;;;;;;13.95;12.40;;;;;;;;;;5051179;28;20038;-69
2021/06/09 07:10:09;;;;;;;16.17;13.25;;;;;;;;;;5046739;28;20045;-68
2021/06/09 07:12:35;;;;;;;13.38;11.98;;;;;;;;;;5093279;28;20054;-69
2021/06/09 07:15:04;;;;;;;16.17;13.18;;;;;;;;;;5105530;28;20408;-68
2021/06/09 07:17:30;;;;;;;17.00;13.23;;;;;;;;;;5098165;28;20074;-69
2021/06/09 07:19:56;;;;;;;16.23;13.90;;;;;;;;;;5106740;28;20442;-68
2021/06/09 07:22:22;;;;;;;14.55;13.07;;;;;;;;;;5104613;28;20062;-68
2021/06/09 07:24:48;;;;;;;16.70;15.00;;;;;;;;;;5107260;28;20055;-68
2021/06/09 07:27:16;;;;;;;17.33;13.20;;;;;;;;;;5105076;28;20039;-68
2021/06/09 07:29:44;;;;;;;14.60;12.85;;;;;;;;;;5103586;28;20051;-67
2021/06/09 07:32:11;;;;;;;15.73;13.98;;;;;;;;;;5105960;28;20040;-68
2021/06/09 07:34:37;;;;;;;15.45;13.85;;;;;;;;;;5101065;28;20494;-68
2021/06/09 07:37:08;;;;;;;15.40;12.65;;;;;;;;;;5106891;28;20048;-68
2021/06/09 07:39:36;;;;;;;14.90;13.30;;;;;;;;;;5107126;28;20051;-68
2021/06/09 07:42:05;;;;;;;17.60;12.95;;;;;;;;;;5106896;28;20059;-68
2021/06/09 07:44:35;;;;;;;14.32;12.57;;;;;;;;;;5107110;28;20458;-68
2021/06/09 07:47:02;;;;;;;15.52;12.93;;;;;;;;;;5105951;28;20050;-68
2021/06/09 07:49:30;;;;;;;13.65;12.25;;;;;;;;;;5101284;28;20063;-68
2021/06/09 07:51:57;;;;;;;14.13;12.82;;;;;;;;;;5097250;28;20051;-69
2021/06/09 07:54:23;;;;;;;13.50;12.10;;;;;;;;;;5103532;28;20047;-68
2021/06/09 07:56:50;;;;;;;13.02;11.70;;;;;;;;;;5104227;28;20043;-68
2021/06/09 07:59:19;;;;;;;14.98;13.48;;;;;;;;;;5105976;28;20074;-68
2021/06/09 08:01:47;;;;;;;13.63;12.20;;;;;;;;;;5103572;28;20391;-68
2021/06/09 08:04:13;;;;;;;13.52;12.23;;;;;;;;;;5103866;28;20059;-68
2021/06/09 08:06:42;;;;;;;13.45;12.05;;;;;;;;;;5103771;28;20047;-68
2021/06/09 08:09:09;;;;;;;13.43;12.05;;;;;;;;;;5104098;28;20047;-68
2021/06/09 08:11:36;;;;;;;13.70;12.32;;;;;;;;;;5095239;28;20047;-68
2021/06/09 08:14:02;;;;;;;13.48;12.13;;;;;;;;;;5080768;28;20685;-68
2021/06/09 08:16:28;;;;;;;13.60;12.20;;;;;;;;;;5084196;28;20045;-68
2021/06/09 08:18:54;;;;;;;12.98;11.10;;;;;;;;;;5083357;28;20098;-68
2021/06/09 08:21:23;;;;;;;13.75;12.45;;;;;;;;;;5088894;28;20188;-67
2021/06/09 08:23:51;;;;;;;13.75;12.45;;;;;;;;;;5094194;28;20105;-68
2021/06/09 08:26:19;;;;;;;13.80;12.48;;;;;;;;;;5085845;28;20040;-68
2021/06/09 08:28:46;;;;;;;12.73;11.52;;;;;;;;;;5083097;28;20044;-68
2021/06/09 08:31:14;;;;;;;15.50;12.48;;;;;;;;;;5084641;28;20077;-68
2021/06/09 08:33:41;;;;;;;12.88;11.68;;;;;;;;;;5082083;28;20048;-68
2021/06/09 08:36:09;;;;;;;13.35;11.40;;;;;;;;;;5081945;28;20056;-68
2021/06/09 08:38:35;;;;;;;12.25;11.05;;;;;;;;;;5077151;28;20047;-68
2021/06/09 08:41:04;;;;;;;12.63;11.32;;;;;;;;;;5080444;28;20044;-68
2021/06/09 08:43:33;;;;;;;12.02;10.82;;;;;;;;;;5084120;28;20503;-69
2021/06/09 08:45:59;;;;;;;13.27;11.38;;;;;;;;;;5080470;28;20045;-68
2021/06/09 08:48:26;;;;;;;13.15;11.82;;;;;;;;;;5085667;28;20040;-68
2021/06/09 08:50:54;;;;;;;13.35;11.95;;;;;;;;;;5081962;28;20052;-68
2021/06/09 08:53:22;;;;;;;11.95;10.75;;;;;;;;;;5081661;28;20049;-68
2021/06/09 08:55:49;;;;;;;12.25;11.05;;;;;;;;;;5083519;28;20075;-68
2021/06/09 08:58:17;;;;;;;12.45;11.25;;;;;;;;;;5083231;28;20085;-68
2021/06/09 09:00:44;;;;;;;12.50;11.40;;;;;;;;;;5085372;28;20052;-68
2021/06/09 09:03:11;;;;;;;13.23;11.82;;;;;;;;;;5084182;28;20050;-68
2021/06/09 09:05:37;;;;;;;13.27;10.45;;;;;;;;;;5082708;28;20051;-68
2021/06/09 09:08:05;;;;;;;11.55;10.32;;;;;;;;;;5086068;28;20054;-68
2021/06/09 09:10:31;;;;;;;10.52;9.50;;;;;;;;;;5083675;28;20056;-68
2021/06/09 09:12:57;;;;;;;12.32;10.65;;;;;;;;;;5082602;28;20513;-68
2021/06/09 09:15:25;;;;;;;12.45;11.15;;;;;;;;;;5079672;28;20489;-68
2021/06/09 09:17:53;;;;;;;12.20;10.70;;;;;;;;;;5080162;28;20048;-70
2021/06/09 09:20:22;;;;;;;13.05;10.68;;;;;;;;;;5088403;28;20047;-70
2021/06/09 09:22:48;;;;;;;11.95;10.25;;;;;;;;;;5087655;28;20130;-70
2021/06/09 09:25:18;;;;;;;11.48;10.32;;;;;;;;;;5093028;28;20468;-70
2021/06/09 09:27:52;;;;;;;11.82;10.68;;;;;;;;;;5092678;28;20052;-70
2021/06/09 09:30:19;;;;;;;11.30;10.27;;;;;;;;;;5092914;28;20043;-71
2021/06/09 09:33:02;;;;;;;11.73;10.73;;;;;;;;;;5082897;28;20052;-72
2021/06/09 09:35:29;;;;;;;11.77;10.68;;;;;;;;;;5080218;28;20186;-70
2021/06/09 09:38:18;;;;;;;11.65;10.55;;;;;;;;;;5081395;28;20458;-71
2021/06/09 09:41:04;;;;;;;11.32;10.32;;;;;;;;;;5086588;28;20044;-71
2021/06/09 09:43:44;;;;;;;11.32;10.20;;;;;;;;;;5089693;28;20121;-71
2021/06/09 09:46:12;;;;;;;11.00;9.90;;;;;;;;;;5089792;28;20059;-70
2021/06/09 09:48:41;;;;;;;12.10;10.98;;;;;;;;;;5092355;28;20068;-70
2021/06/09 09:51:08;;;;;;;10.63;9.70;;;;;;;;;;5092157;28;20052;-70
2021/06/09 09:53:34;;;;;;;10.90;9.85;;;;;;;;;;5093019;28;20154;-70
2021/06/09 09:56:07;;;;;;;11.88;10.88;;;;;;;;;;5083902;28;20056;-70
2021/06/09 09:58:34;;;;;;;11.40;10.38;;;;;;;;;;5081120;28;20055;-70
2021/06/09 10:01:14;;;;;;;11.88;10.68;;;;;;;;;;5092105;28;20056;-70
2021/06/09 10:03:43;;;;;;;11.45;10.30;;;;;;;;;;5092788;28;20499;-71
2021/06/09 10:06:20;;;;;;;9.80;8.90;;;;;;;;;;5092933;28;20158;-71
2021/06/09 10:08:46;;;;;;;10.55;9.55;;;;;;;;;;5091627;28;20465;-70
2021/06/09 10:11:12;;;;;;;11.25;10.05;;;;;;;;;;5080349;28;20052;-71
2021/06/09 10:13:38;;;;;;;11.25;10.15;;;;;;;;;;5092647;28;20436;-71
2021/06/09 10:16:21;;;;;;;11.18;10.05;;;;;;;;;;5088669;28;20048;-70
2021/06/09 10:19:03;;;;;;;11.43;10.32;;;;;;;;;;5091471;28;20148;-71
2021/06/09 10:21:29;;;;;;;10.18;9.00;;;;;;;;;;5090600;28;20070;-71
2021/06/09 10:24:06;;;;;;;9.57;8.68;;;;;;;;;;5095520;28;20047;-71
2021/06/09 10:26:32;;;;;;;8.93;8.05;;;;;;;;;;5096629;28;20082;-71
2021/06/09 10:29:01;;;;;;;9.32;8.43;;;;;;;;;;5095876;28;20040;-71
2021/06/09 10:31:28;;;;;;;8.82;7.93;;;;;;;;;;5095856;28;20104;-71
2021/06/09 10:33:56;;;;;;;8.45;7.53;;;;;;;;;;5096281;28;20052;-71
2021/06/09 10:36:23;;;;;;;11.05;8.55;;;;;;;;;;5096304;28;20055;-71
2021/06/09 10:38:51;;;;;;;9.98;8.27;;;;;;;;;;5087167;28;20044;-71
2021/06/09 10:41:17;;;;;;;7.93;7.13;;;;;;;;;;5075498;28;20135;-71
2021/06/09 10:43:47;;;;;;;10.60;9.57;;;;;;;;;;5075978;28;20057;-71
2021/06/09 10:46:13;;;;;;;9.98;9.00;;;;;;;;;;5075546;28;20048;-71
2021/06/09 10:48:40;;;;;;;9.27;8.43;;;;;;;;;;5076174;28;20056;-72
2021/06/09 10:51:09;;;;;;;10.45;9.07;;;;;;;;;;5075908;28;20060;-70
2021/06/09 10:53:36;;;;;;;8.40;7.60;;;;;;;;;;5075526;28;20059;-71
2021/06/09 10:56:03;;;;;;;8.48;7.75;;;;;;;;;;5075453;28;20059;-72
2021/06/09 10:58:29;;;;;;;14.45;9.63;;;;;;;;;;5090384;28;20103;-71
2021/06/09 11:00:56;;;;;;;13.00;9.27;;;;;;;;;;5074980;28;20087;-71
2021/06/09 11:03:22;;;;;;;10.85;9.85;;;;;;;;;;5074995;28;20049;-71
2021/06/09 11:05:48;;;;;;;10.57;9.25;;;;;;;;;;5075590;28;20052;-71
2021/06/09 11:08:17;;;;;;;11.85;10.65;;;;;;;;;;5078061;28;20044;-70
2021/06/09 11:10:45;;;;;;;10.48;9.35;;;;;;;;;;5079107;28;20049;-71
2021/06/09 11:13:11;;;;;;;10.57;9.55;;;;;;;;;;5075460;28;20127;-71
2021/06/09 11:15:39;;;;;;;10.75;9.35;;;;;;;;;;5085789;28;20377;-71
2021/06/09 11:18:12;;;;;;;12.40;11.23;;;;;;;;;;5087744;28;20048;-70
2021/06/09 11:20:40;;;;;;;11.65;10.55;;;;;;;;;;5079342;28;20059;-70
2021/06/09 11:23:08;;;;;;;11.35;10.25;;;;;;;;;;5090472;28;20127;-70
2021/06/09 11:25:38;;;;;;;11.40;10.30;;;;;;;;;;5090752;28;20059;-70
2021/06/09 11:28:06;;;;;;;11.27;10.18;;;;;;;;;;5095025;28;20040;-70
2021/06/09 11:30:44;;;;;;;11.30;10.18;;;;;;;;;;5087969;28;20080;-70
2021/06/09 11:33:12;;;;;;;12.15;10.88;;;;;;;;;;5085903;28;20048;-70
2021/06/09 11:35:43;;;;;;;11.10;10.10;;;;;;;;;;5094123;28;20052;-70
2021/06/09 11:38:23;;;;;;;11.00;9.73;;;;;;;;;;5095291;28;20104;-71
2021/06/09 11:40:54;;;;;;;11.82;8.95;;;;;;;;;;5093660;28;20050;-70
2021/06/09 11:43:21;;;;;;;9.43;8.18;;;;;;;;;;5079770;28;20129;-70
2021/06/09 11:45:54;;;;;;;8.70;7.82;;;;;;;;;;5083036;28;20131;-72
2021/06/09 11:48:23;;;;;;;8.30;7.43;;;;;;;;;;5094508;28;20093;-70
2021/06/09 11:50:52;;;;;;;11.68;7.20;;;;;;;;;;5086322;28;20373;-71
2021/06/09 11:53:40;;;;;;;7.93;7.10;;;;;;;;;;5094408;28;20056;-71
2021/06/09 11:56:16;;;;;;;9.23;7.57;;;;;;;;;;5083359;28;20070;-70
2021/06/09 11:58:43;;;;;;;7.82;6.47;;;;;;;;;;5074391;28;20055;-70
2021/06/09 12:01:10;;;;;;;6.60;5.95;;;;;;;;;;5093085;28;20040;-71
2021/06/09 12:03:39;;;;;;;7.95;6.95;;;;;;;;;;5082406;28;20051;-70
2021/06/09 12:06:17;;;;;;;9.43;7.35;;;;;;;;;;5074149;28;20056;-70
2021/06/09 12:08:44;;;;;;;10.63;7.20;;;;;;;;;;5074131;28;20095;-71
2021/06/09 12:11:11;;;;;;;13.77;9.10;;;;;;;;;;5093046;28;20073;-70
2021/06/09 12:13:38;;;;;;;10.88;9.07;;;;;;;;;;5093013;28;20473;-71
2021/06/09 12:16:06;;;;;;;12.05;9.02;;;;;;;;;;5076970;28;20053;-70
2021/06/09 12:18:32;;;;;;;11.18;10.05;;;;;;;;;;5081582;28;20048;-70
2021/06/09 12:21:07;;;;;;;14.10;12.27;;;;;;;;;;5079463;28;20049;-70
2021/06/09 12:23:33;;;;;;;11.98;10.77;;;;;;;;;;5078532;28;20052;-70
2021/06/09 12:26:00;;;;;;;14.15;12.70;;;;;;;;;;5073908;28;20481;-69
2021/06/09 12:28:26;;;;;;;12.20;10.93;;;;;;;;;;5073546;28;20070;-69
2021/06/09 12:30:57;;;;;;;16.45;11.40;;;;;;;;;;5073867;28;20400;-69
2021/06/09 12:33:39;;;;;;;13.82;12.43;;;;;;;;;;5073469;28;20056;-71
2021/06/09 12:36:10;;;;;;;19.88;11.73;;;;;;;;;;5074307;28;20109;-68
2021/06/09 12:38:37;;;;;;;13.50;11.80;;;;;;;;;;5074167;28;20458;-70
2021/06/09 12:41:04;;;;;;;12.35;11.13;;;;;;;;;;5088558;28;20056;-69
2021/06/09 12:43:31;;;;;;;14.35;11.23;;;;;;;;;;5093591;28;20143;-69
2021/06/09 12:45:59;;;;;;;11.48;10.38;;;;;;;;;;5087798;28;20051;-70
2021/06/09 12:48:27;;;;;;;11.32;10.10;;;;;;;;;;5073210;28;20080;-69
2021/06/09 12:50:54;;;;;;;11.88;10.77;;;;;;;;;;5073469;28;20052;-69
2021/06/09 12:53:21;;;;;;;13.10;10.73;;;;;;;;;;5072865;28;20052;-71
2021/06/09 12:55:49;;;;;;;13.43;11.05;;;;;;;;;;5075067;28;20102;-70
2021/06/09 12:58:20;;;;;;;12.07;10.98;;;;;;;;;;5093518;28;20048;-70
2021/06/09 13:00:48;;;;;;;11.52;10.43;;;;;;;;;;5091645;28;20056;-70
2021/06/09 13:03:22;;;;;;;10.73;9.73;;;;;;;;;;5092312;28;20048;-70
2021/06/09 13:05:53;;;;;;;10.80;9.77;;;;;;;;;;5093296;28;20048;-70
2021/06/09 13:08:21;;;;;;;10.15;9.23;;;;;;;;;;5091830;28;20048;-70
2021/06/09 13:10:48;;;;;;;10.15;9.25;;;;;;;;;;5074014;28;20095;-70
2021/06/09 13:13:16;;;;;;;10.48;9.40;;;;;;;;;;5072770;28;20050;-69
2021/06/09 13:15:42;;;;;;;11.05;9.95;;;;;;;;;;5073145;28;20051;-70
2021/06/09 13:18:08;;;;;;;10.05;9.15;;;;;;;;;;5073118;28;20374;-71
2021/06/09 13:20:36;;;;;;;10.13;8.82;;;;;;;;;;5069118;28;20049;-69
2021/06/09 13:23:08;;;;;;;10.07;9.07;;;;;;;;;;5064447;28;20056;-69
2021/06/09 13:25:35;;;;;;;10.75;9.70;;;;;;;;;;5072964;28;20052;-69
2021/06/09 13:28:01;;;;;;;10.10;9.10;;;;;;;;;;5072146;28;20480;-68
2021/06/09 13:30:30;;;;;;;11.93;9.70;;;;;;;;;;5072979;28;20459;-67
2021/06/09 13:32:57;;;;;;;18.80;10.13;;;;;;;;;;5073031;28;20044;-67
2021/06/09 13:35:25;;;;;;;12.13;9.02;;;;;;;;;;5072873;28;20059;-69
2021/06/09 13:37:56;;;;;;;11.38;10.18;;;;;;;;;;5072676;28;20380;-69
2021/06/09 13:40:24;;;;;;;11.48;10.40;;;;;;;;;;5072548;28;20051;-68
2021/06/09 13:42:59;;;;;;;14.55;9.68;;;;;;;;;;5072477;28;20048;-67
2021/06/09 13:45:27;;;;;;;10.48;9.15;;;;;;;;;;5066826;28;20474;-69
2021/06/09 13:48:02;;;;;;;11.02;9.75;;;;;;;;;;5052705;28;20156;-68
2021/06/09 13:50:28;;;;;;;13.90;10.88;;;;;;;;;;5053047;28;20048;-68
2021/06/09 13:53:01;;;;;;;12.65;11.40;;;;;;;;;;5052542;28;20056;-68
2021/06/09 13:55:27;;;;;;;13.80;11.48;;;;;;;;;;5064116;28;20056;-68
2021/06/09 13:57:54;;;;;;;13.05;11.73;;;;;;;;;;5072331;28;20059;-72
2021/06/09 14:00:23;;;;;;;14.00;12.70;;;;;;;;;;5072450;28;20055;-69
2021/06/09 14:02:49;;;;;;;13.30;12.00;;;;;;;;;;5072120;28;20080;-69
2021/06/09 14:05:18;;;;;;;12.65;11.35;;;;;;;;;;5072329;28;20044;-69
2021/06/09 14:07:46;;;;;;;14.40;12.95;;;;;;;;;;5072632;28;20049;-69
2021/06/09 14:10:15;;;;;;;14.93;13.32;;;;;;;;;;5071910;28;20102;-69
2021/06/09 14:12:44;;;;;;;16.42;12.88;;;;;;;;;;5088463;28;20105;-69
2021/06/09 14:15:12;;;;;;;13.43;12.23;;;;;;;;;;5077322;28;20176;-69
2021/06/09 14:17:38;;;;;;;15.00;13.50;;;;;;;;;;5071969;28;20137;-69
2021/06/09 14:20:08;;;;;;;13.90;11.63;;;;;;;;;;5083334;28;20056;-71
2021/06/09 14:22:36;;;;;;;20.92;12.48;;;;;;;;;;5083622;28;20045;-69
2021/06/09 14:25:08;;;;;;;15.13;12.00;;;;;;;;;;5083957;28;20092;-70
2021/06/09 14:27:55;;;;;;;12.85;11.63;;;;;;;;;;5092034;28;20096;-69
2021/06/09 14:30:25;;;;;;;15.05;12.55;;;;;;;;;;5092317;28;20393;-69
2021/06/09 14:33:10;;;;;;;15.30;11.88;;;;;;;;;;5091776;28;20131;-70
2021/06/09 14:35:52;;;;;;;14.43;12.90;;;;;;;;;;5092448;28;20048;-70
2021/06/09 14:38:20;;;;;;;14.45;13.07;;;;;;;;;;5092071;28;20101;-70
2021/06/09 14:40:46;;;;;;;21.42;13.50;;;;;;;;;;5086534;28;20051;-69
2021/06/09 14:43:14;;;;;;;19.67;12.73;;;;;;;;;;5071386;28;20075;-72
2021/06/09 14:45:45;;;;;;;13.85;12.43;;;;;;;;;;5071516;28;20052;-71
2021/06/09 14:48:32;;;;;;;15.07;13.57;;;;;;;;;;5071326;28;20052;-71
2021/06/09 14:51:07;;;;;;;15.45;13.55;;;;;;;;;;5072249;28;20066;-70
2021/06/09 14:53:33;;;;;;;16.00;12.15;;;;;;;;;;5074124;28;20045;-70
2021/06/09 14:55:59;;;;;;;12.98;11.80;;;;;;;;;;5085766;28;20135;-68
2021/06/09 14:58:28;;;;;;;14.05;12.55;;;;;;;;;;5082799;28;20047;-70
2021/06/09 15:00:54;;;;;;;12.18;10.88;;;;;;;;;;5090436;28;20052;-68
2021/06/09 15:03:20;;;;;;;14.70;11.13;;;;;;;;;;5077905;28;20051;-68
2021/06/09 15:05:46;;;;;;;13.25;11.32;;;;;;;;;;5092537;28;20073;-69
2021/06/09 15:08:12;;;;;;;12.45;11.00;;;;;;;;;;5077001;28;20130;-68
2021/06/09 15:10:38;;;;;;;12.35;10.60;;;;;;;;;;5075000;28;20049;-69
2021/06/09 15:13:05;;;;;;;12.05;10.15;;;;;;;;;;5074815;28;20044;-69
2021/06/09 15:15:33;;;;;;;14.18;9.88;;;;;;;;;;5078749;28;20048;-70
2021/06/09 15:17:59;;;;;;;12.93;9.52;;;;;;;;;;5091757;28;20066;-69
2021/06/09 15:20:25;;;;;;;11.80;10.25;;;;;;;;;;5077652;28;20578;-70
2021/06/09 15:22:51;;;;;;;11.48;10.27;;;;;;;;;;5082915;28;20053;-70
2021/06/09 15:25:17;;;;;;;11.68;10.35;;;;;;;;;;5087074;28;20051;-70
2021/06/09 15:27:43;;;;;;;11.05;10.02;;;;;;;;;;5094239;28;20131;-70
2021/06/09 15:30:11;;;;;;;11.73;9.43;;;;;;;;;;5095377;28;20062;-69
2021/06/09 15:32:38;;;;;;;11.13;9.63;;;;;;;;;;5095290;28;20052;-70